Time;durP1;ratioP1;P1;durP2;ratioP2;P2;SDS_P1;SDS_P2;PMS_P1;PMS_P2;Temp;Humidity;BMP_temperature;BMP_pressure;BME280_temperature;BME280_humidity;BME280_pressure;Samples;Min_cycle;Max_cycle;Signal;HPM_P1;HPM_P2
2023/01/15 00:00:13;;;;;;;8.98;4.32;;;7.10;86.10;;;;;;5035867;28;20174;-70
2023/01/15 00:02:38;;;;;;;7.90;4.40;;;7.10;86.00;;;;;;5035389;28;20478;-70
2023/01/15 00:05:04;;;;;;;8.45;4.28;;;7.10;86.00;;;;;;5035377;28;20035;-70
2023/01/15 00:07:30;;;;;;;7.43;4.10;;;7.10;86.20;;;;;;5035701;28;20072;-73
2023/01/15 00:09:56;;;;;;;6.97;4.53;;;7.10;86.30;;;;;;5035733;28;20082;-70
2023/01/15 00:12:22;;;;;;;8.43;5.38;;;7.10;86.50;;;;;;5035199;28;20064;-70
2023/01/15 00:14:48;;;;;;;6.07;4.13;;;7.10;86.60;;;;;;5037634;28;20113;-70
2023/01/15 00:17:15;;;;;;;7.05;4.63;;;7.10;86.70;;;;;;5038267;28;20037;-70
2023/01/15 00:19:41;;;;;;;9.02;4.88;;;7.10;86.80;;;;;;5034998;28;20044;-70
2023/01/15 00:22:06;;;;;;;7.13;4.53;;;7.10;87.10;;;;;;5035381;28;20026;-70
2023/01/15 00:30:00;;;;;;;10.00;5.40;;;7.10;87.70;;;;;;5034772;28;20044;-70
2023/01/15 00:32:28;;;;;;;8.68;4.95;;;7.10;87.70;;;;;;5034090;28;20025;-70
2023/01/15 00:34:54;;;;;;;7.72;4.93;;;7.10;88.40;;;;;;5034369;28;20034;-70
2023/01/15 00:37:20;;;;;;;10.05;5.30;;;7.10;88.60;;;;;;5035008;28;20451;-70
2023/01/15 00:39:46;;;;;;;8.13;5.78;;;7.10;89.20;;;;;;5034444;28;20056;-70
2023/01/15 00:42:12;;;;;;;9.32;6.05;;;7.10;89.90;;;;;;5035203;28;20421;-70
2023/01/15 00:44:38;;;;;;;9.80;5.70;;;7.00;90.20;;;;;;5034745;28;20037;-70
2023/01/15 00:47:05;;;;;;;9.35;5.78;;;7.00;90.40;;;;;;5034726;28;20030;-70
2023/01/15 00:49:30;;;;;;;10.52;6.03;;;7.00;90.60;;;;;;5034737;28;20111;-70
2023/01/15 00:51:56;;;;;;;8.75;5.93;;;7.00;90.80;;;;;;5041194;28;20535;-70
2023/01/15 00:54:22;;;;;;;10.02;6.10;;;7.00;90.70;;;;;;5054560;28;20560;-70
2023/01/15 00:56:48;;;;;;;10.13;5.80;;;7.00;90.90;;;;;;5054078;28;20043;-70
2023/01/15 00:59:13;;;;;;;9.23;5.60;;;6.90;91.00;;;;;;5054473;28;20470;-70
2023/01/15 01:01:39;;;;;;;10.80;5.93;;;6.90;91.30;;;;;;5054096;28;20482;-70
2023/01/15 01:04:05;;;;;;;10.10;7.22;;;6.90;91.50;;;;;;5054605;28;20428;-71
2023/01/15 01:06:31;;;;;;;10.10;6.38;;;6.90;91.60;;;;;;5054598;28;20059;-70
2023/01/15 01:08:57;;;;;;;9.80;6.80;;;6.90;91.70;;;;;;5053949;28;20033;-70
2023/01/15 01:11:25;;;;;;;10.52;6.60;;;6.90;91.90;;;;;;5053103;28;20032;-70
2023/01/15 01:13:52;;;;;;;11.35;6.93;;;6.80;92.00;;;;;;5053861;28;20025;-70
2023/01/15 01:16:29;;;;;;;13.68;7.15;;;6.80;92.30;;;;;;5052871;28;20484;-70
2023/01/15 01:18:56;;;;;;;11.82;6.93;;;6.90;92.30;;;;;;5053725;28;20120;-70
2023/01/15 01:21:22;;;;;;;11.65;6.55;;;6.90;92.40;;;;;;5054134;28;20075;-70
2023/01/15 01:23:48;;;;;;;10.15;5.80;;;6.90;92.40;;;;;;5053399;28;20091;-70
2023/01/15 01:26:14;;;;;;;10.80;6.55;;;6.90;92.40;;;;;;5053980;28;20033;-70
2023/01/15 01:28:41;;;;;;;12.77;6.75;;;6.90;92.70;;;;;;5053583;28;20029;-70
2023/01/15 01:31:07;;;;;;;11.05;6.43;;;6.90;92.50;;;;;;5052565;28;20028;-70
2023/01/15 01:33:33;;;;;;;10.50;6.75;;;6.90;92.50;;;;;;5053348;28;20370;-69
2023/01/15 01:35:58;;;;;;;9.07;6.10;;;6.90;92.50;;;;;;5053201;28;20029;-70
2023/01/15 01:38:24;;;;;;;10.63;6.78;;;6.90;92.70;;;;;;5053765;28;20033;-71
2023/01/15 01:40:50;;;;;;;9.23;6.30;;;6.90;92.70;;;;;;5053152;28;20049;-71
2023/01/15 01:43:22;;;;;;;12.60;7.53;;;6.90;92.80;;;;;;5053655;28;20048;-70
2023/01/15 01:45:48;;;;;;;13.60;7.20;;;6.90;92.90;;;;;;5052395;28;20025;-70
2023/01/15 01:48:16;;;;;;;11.75;6.47;;;6.90;93.10;;;;;;5053602;28;20040;-70
2023/01/15 01:50:42;;;;;;;11.65;6.43;;;6.90;93.10;;;;;;5051838;28;20466;-70
2023/01/15 01:53:15;;;;;;;10.63;6.63;;;6.90;93.50;;;;;;5053479;28;20181;-71
2023/01/15 01:55:41;;;;;;;9.32;6.03;;;6.80;93.80;;;;;;5053218;28;20465;-70
2023/01/15 01:58:11;;;;;;;10.07;6.30;;;6.80;93.90;;;;;;5053904;28;20458;-69
2023/01/15 02:00:38;;;;;;;11.02;6.72;;;6.80;94.10;;;;;;5052971;28;20378;-69
2023/01/15 02:03:07;;;;;;;10.02;6.10;;;6.80;94.20;;;;;;5052994;28;20460;-69
2023/01/15 02:05:38;;;;;;;9.68;6.45;;;6.80;94.40;;;;;;5053365;28;20028;-69
2023/01/15 02:08:04;;;;;;;10.40;6.35;;;6.80;94.30;;;;;;5053216;28;20037;-71
2023/01/15 02:10:30;;;;;;;11.90;7.32;;;6.80;94.50;;;;;;5053156;28;20095;-71
2023/01/15 02:13:01;;;;;;;11.48;6.90;;;6.80;94.80;;;;;;5052780;28;20021;-71
2023/01/15 02:16:02;;;;;;;12.45;6.82;;;6.80;94.90;;;;;;5052780;28;20044;-71
2023/01/15 02:18:44;;;;;;;8.57;6.13;;;6.90;95.00;;;;;;5041079;28;20040;-71
2023/01/15 02:21:32;;;;;;;11.20;6.10;;;6.90;95.10;;;;;;5053147;28;20258;-71
2023/01/15 02:24:04;;;;;;;9.07;5.75;;;6.80;95.40;;;;;;5052588;28;20025;-71
2023/01/15 02:26:42;;;;;;;13.30;6.10;;;6.80;95.60;;;;;;5053055;28;20137;-70
2023/01/15 02:29:14;;;;;;;8.88;5.57;;;6.80;96.00;;;;;;5052695;28;20036;-71
2023/01/15 02:31:44;;;;;;;7.85;5.68;;;6.80;96.10;;;;;;5053109;28;20025;-71
2023/01/15 02:34:15;;;;;;;9.40;5.70;;;6.80;96.30;;;;;;5053110;28;20028;-71
2023/01/15 02:36:43;;;;;;;;;;;6.80;96.50;;;;;;5053328;28;20043;-75
2023/01/15 02:39:12;;;;;;;8.95;5.70;;;6.80;96.70;;;;;;5052356;28;19917;-70
2023/01/15 02:41:45;;;;;;;9.10;5.40;;;6.80;96.90;;;;;;5052057;28;20056;-69
2023/01/15 02:44:15;;;;;;;8.57;5.40;;;6.80;97.00;;;;;;5051871;28;20083;-70
2023/01/15 02:46:42;;;;;;;8.15;5.45;;;6.80;97.40;;;;;;5053010;28;20131;-69
2023/01/15 02:49:12;;;;;;;8.20;5.53;;;6.70;97.50;;;;;;5052712;28;20036;-70
2023/01/15 02:51:50;;;;;;;8.75;5.80;;;6.70;97.70;;;;;;5052299;28;20101;-70
2023/01/15 02:54:18;;;;;;;7.70;5.10;;;6.70;97.90;;;;;;5052320;28;20473;-69
2023/01/15 02:56:47;;;;;;;8.73;4.93;;;6.70;97.90;;;;;;5054788;28;20029;-72
2023/01/15 02:59:20;;;;;;;8.02;5.25;;;6.70;98.20;;;;;;5056750;28;20060;-71
2023/01/15 03:01:57;;;;;;;7.68;5.20;;;6.70;98.00;;;;;;5055108;28;20027;-72
2023/01/15 03:04:59;;;;;;;7.43;5.15;;;6.70;98.20;;;;;;5056523;28;20377;-70
2023/01/15 03:07:31;;;;;;;8.40;5.70;;;6.60;98.30;;;;;;5049621;28;20063;-70
2023/01/15 03:09:57;;;;;;;10.20;5.45;;;6.60;98.60;;;;;;5056231;28;20117;-70
2023/01/15 03:13:01;;;;;;;7.95;5.05;;;6.60;98.70;;;;;;5056818;28;20071;-70
2023/01/15 03:18:21;;;;;;;8.65;5.13;;;6.60;98.50;;;;;;5056276;28;20118;-70
2023/01/15 03:20:51;;;;;;;7.18;5.03;;;6.60;98.60;;;;;;5055632;28;20381;-71
2023/01/15 03:23:21;;;;;;;9.90;5.28;;;6.70;98.50;;;;;;5056260;28;20451;-71
2023/01/15 03:25:48;;;;;;;8.07;5.15;;;6.60;98.60;;;;;;5054759;28;20029;-71
2023/01/15 03:28:20;;;;;;;8.30;5.13;;;6.60;98.70;;;;;;5056237;28;20033;-70
2023/01/15 03:30:45;;;;;;;9.23;5.05;;;6.60;98.90;;;;;;5055332;28;20029;-73
2023/01/15 03:33:11;;;;;;;8.63;5.88;;;6.60;98.90;;;;;;5056168;28;20109;-70
2023/01/15 03:35:51;;;;;;;7.57;5.22;;;6.60;98.90;;;;;;5056354;28;20055;-70
2023/01/15 03:38:22;;;;;;;7.15;5.00;;;6.60;98.70;;;;;;5056128;28;20029;-69
2023/01/15 03:41:08;;;;;;;10.75;5.45;;;6.60;98.90;;;;;;5055916;28;20057;-71
2023/01/15 03:43:59;;;;;;;9.73;5.50;;;6.60;98.80;;;;;;5056018;28;20064;-69
2023/01/15 03:47:09;;;;;;;9.50;5.30;;;6.50;98.90;;;;;;5056148;28;20036;-70
2023/01/15 03:49:39;;;;;;;6.93;4.78;;;6.50;99.10;;;;;;5050704;28;20083;-71
2023/01/15 03:52:44;;;;;;;8.43;4.97;;;6.60;99.00;;;;;;5060179;28;20025;-70
2023/01/15 03:55:45;;;;;;;7.13;4.78;;;6.50;98.90;;;;;;5058737;28;20086;-69
2023/01/15 03:58:14;;;;;;;8.40;4.70;;;6.50;99.00;;;;;;5045278;28;20045;-69
2023/01/15 04:00:50;;;;;;;7.43;4.90;;;6.50;99.00;;;;;;5055675;28;20061;-70
2023/01/15 04:03:18;;;;;;;6.93;4.80;;;6.50;99.00;;;;;;5055588;28;20415;-69
2023/01/15 04:05:45;;;;;;;8.50;5.10;;;6.40;99.10;;;;;;5055521;28;20041;-69
2023/01/15 04:08:12;;;;;;;7.82;4.75;;;6.40;99.20;;;;;;5053692;28;20028;-69
2023/01/15 04:10:49;;;;;;;10.85;5.03;;;6.40;99.30;;;;;;5055449;28;20025;-69
2023/01/15 04:13:14;;;;;;;7.63;4.93;;;6.40;99.30;;;;;;5055275;28;20386;-69
2023/01/15 04:15:40;;;;;;;8.05;4.60;;;6.30;99.30;;;;;;5055159;28;20074;-69
2023/01/15 04:18:05;;;;;;;8.50;4.97;;;6.30;99.30;;;;;;5054972;28;20074;-69
2023/01/15 04:20:31;;;;;;;10.68;4.93;;;6.40;99.40;;;;;;5055312;28;20036;-70
2023/01/15 04:22:57;;;;;;;7.13;4.88;;;6.40;99.70;;;;;;5054732;28;20033;-70
2023/01/15 04:25:22;;;;;;;8.75;5.03;;;6.40;99.50;;;;;;5053921;28;20029;-70
2023/01/15 04:27:49;;;;;;;7.55;4.88;;;6.40;99.50;;;;;;5055144;28;20032;-70
2023/01/15 04:30:16;;;;;;;7.88;5.13;;;6.40;99.70;;;;;;5055208;28;20040;-70
2023/01/15 04:32:42;;;;;;;6.88;4.35;;;6.40;99.60;;;;;;5055386;28;20435;-69
2023/01/15 04:35:08;;;;;;;9.18;5.13;;;6.40;99.60;;;;;;5054513;28;20108;-69
2023/01/15 04:37:33;;;;;;;7.55;4.82;;;6.40;99.30;;;;;;5054721;28;20072;-70
2023/01/15 04:39:59;;;;;;;7.38;4.82;;;6.40;99.50;;;;;;5054188;28;20477;-70
2023/01/15 04:45:09;;;;;;;7.75;4.90;;;6.30;99.90;;;;;;5054147;28;20079;-69
2023/01/15 04:47:35;;;;;;;7.25;4.75;;;6.40;99.90;;;;;;5054396;28;20065;-69
2023/01/15 04:50:00;;;;;;;6.35;4.32;;;6.30;99.90;;;;;;5054035;28;20065;-69
2023/01/15 04:52:26;;;;;;;9.07;4.85;;;6.40;99.90;;;;;;5054406;28;20025;-69
2023/01/15 04:54:53;;;;;;;7.20;4.85;;;6.30;99.90;;;;;;5054416;28;20385;-73
2023/01/15 04:57:19;;;;;;;9.27;5.15;;;6.40;99.90;;;;;;5054593;28;20056;-70
2023/01/15 04:59:45;;;;;;;7.70;5.07;;;6.40;99.90;;;;;;5054589;28;20444;-69
2023/01/15 05:02:10;;;;;;;6.50;4.60;;;6.40;99.90;;;;;;5055674;28;20113;-69
2023/01/15 05:04:36;;;;;;;5.88;4.20;;;6.30;99.80;;;;;;5054241;28;20029;-70
2023/01/15 05:07:03;;;;;;;7.70;4.50;;;6.40;99.90;;;;;;5053905;28;20095;-70
2023/01/15 05:09:29;;;;;;;6.70;4.40;;;6.40;99.80;;;;;;5054291;28;20079;-69
2023/01/15 05:11:54;;;;;;;7.90;4.55;;;6.40;99.60;;;;;;5053912;28;20025;-69
2023/01/15 05:14:20;;;;;;;7.78;4.32;;;6.40;99.40;;;;;;5054000;28;20028;-71
2023/01/15 05:16:46;;;;;;;6.60;4.25;;;6.40;99.10;;;;;;5054142;28;20036;-70
2023/01/15 05:19:11;;;;;;;8.60;4.97;;;6.40;98.90;;;;;;5053124;28;20029;-71
2023/01/15 05:21:41;;;;;;;5.80;4.10;;;6.40;98.70;;;;;;5053866;28;20029;-69
2023/01/15 05:24:11;;;;;;;6.13;4.43;;;6.50;98.60;;;;;;5053537;28;20021;-70
2023/01/15 05:26:37;;;;;;;6.82;3.83;;;6.50;98.20;;;;;;5054050;28;20083;-71
2023/01/15 05:29:03;;;;;;;8.55;4.68;;;6.40;98.10;;;;;;5053306;28;20033;-71
2023/01/15 05:31:30;;;;;;;6.20;4.22;;;6.40;98.00;;;;;;5053921;28;20029;-71
2023/01/15 05:33:56;;;;;;;7.07;4.53;;;6.40;97.90;;;;;;5053454;28;20029;-71
2023/01/15 05:36:24;;;;;;;6.72;4.15;;;6.40;98.00;;;;;;5053781;28;20028;-71
2023/01/15 05:38:51;;;;;;;7.60;4.82;;;6.40;98.20;;;;;;5053863;28;20488;-70
2023/01/15 05:44:05;;;;;;;6.68;4.50;;;6.30;98.60;;;;;;5052949;28;20032;-69
2023/01/15 05:46:33;;;;;;;7.18;4.10;;;6.30;98.50;;;;;;5053494;28;20064;-70
2023/01/15 05:49:04;;;;;;;6.25;4.38;;;6.40;98.70;;;;;;5054412;28;20059;-69
2023/01/15 05:51:30;;;;;;;7.30;4.47;;;6.40;98.70;;;;;;5055658;28;20070;-69
2023/01/15 05:53:57;;;;;;;8.77;4.70;;;6.40;98.60;;;;;;5056510;28;20025;-73
2023/01/15 05:56:22;;;;;;;6.18;3.88;;;6.40;98.70;;;;;;5055233;28;20032;-69
2023/01/15 05:58:48;;;;;;;8.65;4.47;;;6.40;98.40;;;;;;5053251;28;20033;-69
2023/01/15 06:01:14;;;;;;;5.93;4.15;;;6.40;98.10;;;;;;5052990;28;20074;-69
2023/01/15 06:03:42;;;;;;;5.88;3.88;;;6.40;98.30;;;;;;5051890;28;20021;-69
2023/01/15 06:06:16;;;;;;;9.60;3.83;;;6.40;98.30;;;;;;5052966;28;20355;-69
2023/01/15 06:08:43;;;;;;;7.32;4.15;;;6.40;98.20;;;;;;5053110;28;20083;-69
2023/01/15 06:11:10;;;;;;;5.82;3.83;;;6.40;98.40;;;;;;5052279;28;20119;-69
2023/01/15 06:13:36;;;;;;;8.15;4.63;;;6.40;98.20;;;;;;5053098;28;20046;-70
2023/01/15 06:16:02;;;;;;;7.93;3.78;;;6.40;98.10;;;;;;5050720;28;20057;-71
2023/01/15 06:18:28;;;;;;;9.18;5.80;;;6.40;98.30;;;;;;5052559;28;20032;-69
2023/01/15 06:20:53;;;;;;;7.10;4.20;;;6.40;98.30;;;;;;5052747;28;20037;-70
2023/01/15 06:23:19;;;;;;;5.65;4.25;;;6.40;98.20;;;;;;5052395;28;20052;-70
2023/01/15 06:25:45;;;;;;;7.43;4.22;;;6.30;97.80;;;;;;5052793;28;20025;-70
2023/01/15 06:28:11;;;;;;;5.72;4.03;;;6.30;97.80;;;;;;5052022;28;20079;-70
2023/01/15 06:30:38;;;;;;;7.57;4.32;;;6.30;97.90;;;;;;5052613;28;20039;-70
2023/01/15 06:33:05;;;;;;;5.85;3.83;;;6.30;97.90;;;;;;5052062;28;20087;-70
2023/01/15 06:35:30;;;;;;;9.65;4.57;;;6.30;97.60;;;;;;5052523;28;20031;-70
2023/01/15 06:37:56;;;;;;;6.47;3.85;;;6.30;97.70;;;;;;5064439;28;20099;-70
2023/01/15 06:40:22;;;;;;;6.65;4.00;;;6.30;97.70;;;;;;5050183;28;20044;-69
2023/01/15 06:48:25;;;;;;;12.15;7.35;;;6.30;97.40;;;;;;5051882;28;20167;-70
2023/01/15 06:50:52;;;;;;;9.18;4.30;;;6.30;97.70;;;;;;5052678;28;20045;-69
2023/01/15 06:53:19;;;;;;;6.63;4.35;;;6.30;97.60;;;;;;5052092;28;20033;-69
2023/01/15 06:55:44;;;;;;;8.18;4.22;;;6.30;97.50;;;;;;5049404;28;20039;-72
2023/01/15 06:58:10;;;;;;;6.13;3.80;;;6.30;97.20;;;;;;5051190;28;20021;-70
2023/01/15 07:00:36;;;;;;;7.50;4.03;;;6.30;97.30;;;;;;5052296;28;20051;-71
2023/01/15 07:03:03;;;;;;;7.63;3.75;;;6.30;97.40;;;;;;5052300;28;20065;-73
2023/01/15 07:05:29;;;;;;;6.63;4.40;;;6.30;97.60;;;;;;5051775;28;20433;-70
2023/01/15 07:07:57;;;;;;;4.75;3.22;;;6.30;97.50;;;;;;5052172;28;20025;-70
2023/01/15 07:10:22;;;;;;;5.90;3.85;;;6.30;97.40;;;;;;5051959;28;20036;-70
2023/01/15 07:12:48;;;;;;;5.50;3.95;;;6.30;97.60;;;;;;5052284;28;20104;-70
2023/01/15 07:15:14;;;;;;;7.05;4.45;;;6.20;97.70;;;;;;5051699;28;20440;-70
2023/01/15 07:17:39;;;;;;;7.18;3.60;;;6.20;97.70;;;;;;5051911;28;20068;-70
2023/01/15 07:20:06;;;;;;;7.75;4.10;;;6.20;98.20;;;;;;5051504;28;20457;-71
2023/01/15 07:22:32;;;;;;;6.00;3.80;;;6.20;98.30;;;;;;5051916;28;20104;-70
2023/01/15 07:24:57;;;;;;;6.32;3.58;;;6.20;98.40;;;;;;5052085;28;20055;-70
2023/01/15 07:27:23;;;;;;;6.63;4.13;;;6.20;98.70;;;;;;5056191;28;20029;-71
2023/01/15 07:29:50;;;;;;;4.90;3.60;;;6.10;99.40;;;;;;5056070;28;20029;-70
2023/01/15 07:32:17;;;;;;;5.43;3.55;;;6.10;99.40;;;;;;5053403;28;20048;-70
2023/01/15 07:34:43;;;;;;;6.95;3.60;;;6.00;99.80;;;;;;5053398;28;20033;-70
2023/01/15 07:37:08;;;;;;;6.38;3.72;;;5.80;99.90;;;;;;5051763;28;20037;-70
2023/01/15 07:39:34;;;;;;;4.90;3.45;;;5.80;99.90;;;;;;5051646;28;20032;-70
2023/01/15 07:50:22;;;;;;;6.22;3.75;;;5.60;99.90;;;;;;5035558;28;20453;-70
2023/01/15 07:52:48;;;;;;;6.10;4.28;;;5.60;99.90;;;;;;5036007;28;20438;-70
2023/01/15 07:55:14;;;;;;;6.13;4.18;;;5.60;99.90;;;;;;5036475;28;20040;-70
2023/01/15 07:57:41;;;;;;;5.85;3.60;;;5.60;99.90;;;;;;5035827;28;20029;-70
2023/01/15 08:00:12;;;;;;;5.60;3.90;;;5.60;99.90;;;;;;5035345;28;20030;-73
2023/01/15 08:02:39;;;;;;;7.05;3.95;;;5.60;99.90;;;;;;5035629;28;20563;-68
2023/01/15 08:05:05;;;;;;;7.63;4.05;;;5.60;99.90;;;;;;5035603;28;20025;-69
2023/01/15 08:07:36;;;;;;;6.93;4.43;;;5.60;99.90;;;;;;5035248;28;20033;-66
2023/01/15 08:10:02;;;;;;;;;;;5.60;99.90;;;;;;5035020;28;20375;-67
2023/01/15 08:15:12;;;;;;;7.53;3.97;;;5.50;99.90;;;;;;5036269;28;20036;-67
2023/01/15 08:17:42;;;;;;;9.30;4.60;;;5.50;99.90;;;;;;5037265;28;20033;-68
2023/01/15 08:20:13;;;;;;;5.95;4.15;;;5.60;99.90;;;;;;5048049;28;20033;-70
2023/01/15 08:22:39;;;;;;;5.55;3.83;;;5.50;99.90;;;;;;5056455;28;20549;-68
2023/01/15 08:25:07;;;;;;;5.35;4.00;;;5.50;99.90;;;;;;5058231;28;20025;-68
2023/01/15 08:27:32;;;;;;;7.47;4.30;;;5.50;99.90;;;;;;5053949;28;20466;-69
2023/01/15 08:29:58;;;;;;;6.57;4.13;;;5.40;99.90;;;;;;5056207;28;20059;-69
2023/01/15 08:32:24;;;;;;;6.90;3.60;;;5.50;99.90;;;;;;5055768;28;20040;-69
2023/01/15 08:34:50;;;;;;;8.18;3.67;;;5.40;99.90;;;;;;5055362;28;20029;-69
2023/01/15 08:37:15;;;;;;;10.32;4.40;;;5.50;99.90;;;;;;5054426;28;20458;-68
2023/01/15 08:39:41;;;;;;;5.72;3.97;;;5.50;99.90;;;;;;5054647;28;20102;-68
2023/01/15 08:42:07;;;;;;;8.15;3.97;;;5.50;99.90;;;;;;5054699;28;20025;-69
2023/01/15 08:44:33;;;;;;;7.10;4.05;;;5.50;99.90;;;;;;5053759;28;20343;-69
2023/01/15 08:46:58;;;;;;;6.53;4.47;;;5.50;99.90;;;;;;5054509;28;20035;-69
2023/01/15 08:49:24;;;;;;;5.75;3.63;;;5.50;99.90;;;;;;5053820;28;20381;-69
2023/01/15 08:51:50;;;;;;;6.05;3.85;;;5.50;99.90;;;;;;5054139;28;20469;-69
2023/01/15 08:54:21;;;;;;;5.78;3.85;;;5.50;99.90;;;;;;5053251;28;20029;-69
2023/01/15 08:56:48;;;;;;;5.05;3.38;;;5.60;99.90;;;;;;5051779;28;20021;-69
2023/01/15 08:59:14;;;;;;;8.18;3.88;;;5.60;99.90;;;;;;5037657;28;20083;-69
2023/01/15 09:01:40;;;;;;;9.48;3.95;;;5.70;99.90;;;;;;5040304;28;20041;-68
2023/01/15 09:04:05;;;;;;;6.55;3.22;;;5.70;99.90;;;;;;5054170;28;20104;-68
2023/01/15 09:06:32;;;;;;;8.20;4.40;;;5.80;99.90;;;;;;5054039;28;20096;-68
2023/01/15 09:09:01;;;;;;;8.30;4.20;;;5.90;99.90;;;;;;5052458;28;20075;-68
2023/01/15 09:11:27;;;;;;;7.60;4.07;;;5.90;99.90;;;;;;5053420;28;20363;-70
2023/01/15 09:13:53;;;;;;;7.65;4.00;;;5.90;99.90;;;;;;5053981;28;20378;-67
2023/01/15 09:16:19;;;;;;;7.35;3.92;;;5.90;99.90;;;;;;5052425;28;20032;-69
2023/01/15 09:18:44;;;;;;;5.68;3.63;;;5.90;99.90;;;;;;5053917;28;20033;-69
2023/01/15 09:21:10;;;;;;;6.28;3.72;;;5.90;99.90;;;;;;5054872;28;20056;-69
2023/01/15 09:23:36;;;;;;;7.90;4.28;;;5.90;99.90;;;;;;5055102;28;20334;-69
2023/01/15 09:26:05;;;;;;;5.70;3.88;;;5.80;99.90;;;;;;5053993;28;20117;-68
2023/01/15 09:28:32;;;;;;;6.95;3.97;;;5.90;99.90;;;;;;5053781;28;20489;-68
2023/01/15 09:30:58;;;;;;;6.82;4.13;;;5.80;99.90;;;;;;5053933;28;20029;-69
2023/01/15 09:33:24;;;;;;;9.07;4.47;;;5.80;99.90;;;;;;5053918;28;20404;-68
2023/01/15 09:35:50;;;;;;;10.25;4.20;;;5.80;99.90;;;;;;5054223;28;20078;-68
2023/01/15 09:38:18;;;;;;;6.60;4.10;;;5.90;99.90;;;;;;5053276;28;20432;-69
2023/01/15 09:40:54;;;;;;;5.90;4.53;;;5.90;99.90;;;;;;5052825;28;20061;-69
2023/01/15 09:43:46;;;;;;;7.25;3.92;;;5.90;99.90;;;;;;5053621;28;20029;-69
2023/01/15 09:46:15;;;;;;;7.90;3.88;;;6.00;99.90;;;;;;5053820;28;20477;-69
2023/01/15 09:49:25;;;;;;;8.55;4.80;;;6.00;99.90;;;;;;5053797;28;20021;-69
2023/01/15 09:52:02;;;;;;;7.60;4.72;;;6.00;99.90;;;;;;5053332;28;20449;-69
2023/01/15 09:54:40;;;;;;;7.43;4.90;;;6.00;99.90;;;;;;5053448;28;20060;-69
2023/01/15 09:57:12;;;;;;;8.23;4.60;;;6.10;99.90;;;;;;5053328;28;20071;-69
2023/01/15 09:59:42;;;;;;;6.95;4.55;;;6.10;99.90;;;;;;5054444;28;20463;-68
2023/01/15 10:02:33;;;;;;;6.75;4.22;;;6.10;99.90;;;;;;5053346;28;20029;-68
2023/01/15 10:05:10;;;;;;;8.27;4.57;;;6.20;99.90;;;;;;5052790;28;20032;-68
2023/01/15 10:07:49;;;;;;;6.78;4.15;;;6.20;99.90;;;;;;5052609;28;20029;-69
2023/01/15 10:10:20;;;;;;;7.03;4.38;;;6.20;99.90;;;;;;5053338;28;20147;-69
2023/01/15 10:12:49;;;;;;;5.00;3.83;;;6.20;99.90;;;;;;5053330;28;20021;-69
2023/01/15 10:15:35;;;;;;;6.30;3.85;;;6.10;99.90;;;;;;5052990;28;20029;-69
2023/01/15 10:18:01;;;;;;;7.80;4.30;;;6.20;99.90;;;;;;5053070;28;20425;-69
2023/01/15 10:20:48;;;;;;;8.13;4.28;;;6.20;99.90;;;;;;5051138;28;20036;-68
2023/01/15 10:23:33;;;;;;;5.38;3.65;;;6.20;99.90;;;;;;5052884;28;20401;-69
2023/01/15 10:26:21;;;;;;;5.88;3.95;;;6.30;99.90;;;;;;5052979;28;20087;-69
2023/01/15 10:29:08;;;;;;;11.18;3.80;;;6.30;99.90;;;;;;5053135;28;20028;-68
2023/01/15 10:31:53;;;;;;;7.68;3.85;;;6.30;99.90;;;;;;5052858;28;20037;-69
2023/01/15 10:34:40;;;;;;;5.22;4.07;;;6.30;99.90;;;;;;5051477;28;20362;-73
2023/01/15 10:37:19;;;;;;;8.00;3.90;;;6.30;99.90;;;;;;5052826;28;20032;-68
2023/01/15 10:39:45;;;;;;;8.13;4.38;;;6.30;99.90;;;;;;5052294;28;20405;-68
2023/01/15 10:42:48;;;;;;;7.78;3.95;;;6.30;99.90;;;;;;5052567;28;20098;-69
2023/01/15 10:45:25;;;;;;;7.85;4.85;;;6.30;99.90;;;;;;5052032;28;20608;-69
2023/01/15 10:48:00;;;;;;;10.88;4.50;;;6.30;99.90;;;;;;5052620;28;20033;-70
2023/01/15 10:50:27;;;;;;;6.35;4.55;;;6.20;99.90;;;;;;5052279;28;20115;-68
2023/01/15 10:53:23;;;;;;;5.18;3.83;;;6.20;99.90;;;;;;5052557;28;20057;-68
2023/01/15 10:56:06;;;;;;;8.55;4.50;;;6.20;99.90;;;;;;5052448;28;20086;-68
2023/01/15 10:58:55;;;;;;;6.05;4.13;;;6.10;99.90;;;;;;5051051;28;20465;-69
2023/01/15 11:01:24;;;;;;;7.13;4.35;;;6.00;99.90;;;;;;5052298;28;20029;-71
2023/01/15 11:03:50;;;;;;;5.75;3.70;;;6.00;99.90;;;;;;5057740;28;20029;-69
2023/01/15 11:06:22;;;;;;;8.80;4.88;;;6.00;99.90;;;;;;5055174;28;20025;-68
2023/01/15 11:08:52;;;;;;;8.02;4.28;;;6.00;99.90;;;;;;5052936;28;20035;-68
2023/01/15 11:20:26;;;;;;;12.45;5.95;;;6.00;99.90;;;;;;5056285;28;20079;-68
2023/01/15 11:22:53;;;;;;;10.20;4.85;;;6.00;99.90;;;;;;5056565;28;20485;-69
2023/01/15 11:25:28;;;;;;;9.38;6.50;;;6.00;99.90;;;;;;5056671;28;20049;-68
2023/01/15 11:27:54;;;;;;;7.00;5.10;;;6.00;99.90;;;;;;5055185;28;20051;-69
2023/01/15 11:30:32;;;;;;;14.18;6.05;;;5.90;99.90;;;;;;5056343;28;20028;-69
2023/01/15 11:33:02;;;;;;;11.30;5.85;;;5.90;99.90;;;;;;5056570;28;20036;-69
2023/01/15 11:35:29;;;;;;;11.75;5.43;;;5.90;99.90;;;;;;5055851;28;20059;-69
2023/01/15 11:38:12;;;;;;;8.55;4.90;;;5.90;99.90;;;;;;5055900;28;20029;-68
2023/01/15 11:40:38;;;;;;;11.10;5.50;;;5.90;99.90;;;;;;5054861;28;20118;-70
2023/01/15 11:51:54;;;;;;;10.65;6.00;;;5.90;99.90;;;;;;5055940;28;20044;-69
2023/01/15 11:54:21;;;;;;;10.05;5.80;;;5.90;99.90;;;;;;5054571;28;20029;-69
2023/01/15 11:56:47;;;;;;;8.07;4.75;;;5.90;99.90;;;;;;5055271;28;20033;-68
2023/01/15 11:59:17;;;;;;;7.47;4.97;;;5.90;99.90;;;;;;5054328;28;20025;-70
2023/01/15 12:01:53;;;;;;;8.43;5.32;;;6.00;99.90;;;;;;5055300;28;20086;-69
2023/01/15 12:04:33;;;;;;;7.75;4.93;;;6.00;99.90;;;;;;5055649;28;20021;-68
2023/01/15 12:07:00;;;;;;;8.30;4.95;;;6.00;99.90;;;;;;5055705;28;20025;-68
2023/01/15 12:09:31;;;;;;;10.88;5.22;;;6.00;99.90;;;;;;5055165;28;20481;-68
2023/01/15 12:12:02;;;;;;;;;;;6.00;99.90;;;;;;5055924;28;20036;-69
2023/01/15 12:14:57;;;;;;;6.65;5.00;;;6.00;99.90;;;;;;5055155;28;19948;-69
2023/01/15 12:17:29;;;;;;;9.90;5.32;;;6.00;99.90;;;;;;5052586;28;20061;-68
2023/01/15 12:20:23;;;;;;;8.85;5.18;;;6.00;99.90;;;;;;5055262;28;20024;-68
2023/01/15 12:23:26;;;;;;;8.52;5.07;;;6.00;99.90;;;;;;5054706;28;20035;-69
2023/01/15 12:26:23;;;;;;;8.60;5.13;;;6.00;99.90;;;;;;5054951;28;20029;-68
2023/01/15 12:29:04;;;;;;;8.27;5.00;;;6.00;99.90;;;;;;5053852;28;20025;-69
2023/01/15 12:31:45;;;;;;;11.52;5.68;;;6.00;99.90;;;;;;5055377;28;20100;-70
2023/01/15 12:34:48;;;;;;;10.88;6.53;;;6.00;99.90;;;;;;5054090;28;20485;-69
2023/01/15 12:37:28;;;;;;;9.05;5.38;;;6.00;99.90;;;;;;5051880;28;20029;-69
2023/01/15 12:40:13;;;;;;;8.77;4.97;;;6.10;99.90;;;;;;5054624;28;20057;-69
2023/01/15 12:45:48;;;;;;;12.00;7.25;;;6.10;99.90;;;;;;5054218;28;20083;-68
2023/01/15 12:48:22;;;;;;;14.10;6.25;;;6.10;99.90;;;;;;5053496;28;20040;-67
2023/01/15 12:50:53;;;;;;;10.95;5.75;;;6.10;99.90;;;;;;5054338;28;20036;-69
2023/01/15 12:53:24;;;;;;;9.52;5.40;;;6.10;99.90;;;;;;5054391;28;20071;-69
2023/01/15 12:55:57;;;;;;;7.57;5.32;;;6.10;99.90;;;;;;5053846;28;20103;-68
2023/01/15 12:58:31;;;;;;;8.18;5.40;;;6.20;99.90;;;;;;5054495;28;20029;-68
2023/01/15 13:01:20;;;;;;;9.30;4.82;;;6.20;99.90;;;;;;5053007;28;20025;-68
2023/01/15 13:04:04;;;;;;;8.30;5.32;;;6.20;99.90;;;;;;5053969;28;20033;-69
2023/01/15 13:06:31;;;;;;;7.70;5.32;;;6.20;99.90;;;;;;5053797;28;20039;-67
2023/01/15 13:09:29;;;;;;;10.50;5.07;;;6.20;99.90;;;;;;5054351;28;20025;-69
2023/01/15 13:11:55;;;;;;;11.40;5.60;;;6.20;99.90;;;;;;5029003;28;20116;-69
2023/01/15 13:14:23;;;;;;;13.57;5.68;;;6.10;99.90;;;;;;5034416;28;20063;-70
2023/01/15 13:17:21;;;;;;;8.45;6.18;;;6.20;99.90;;;;;;5033670;28;20048;-69
2023/01/15 13:20:11;;;;;;;14.50;6.63;;;6.20;99.90;;;;;;5033481;28;20025;-69
2023/01/15 13:22:57;;;;;;;6.75;5.57;;;6.20;99.90;;;;;;5033661;28;20105;-68
2023/01/15 13:25:50;;;;;;;11.55;6.10;;;6.20;99.90;;;;;;5034251;28;20030;-68
2023/01/15 13:28:22;;;;;;;11.20;5.85;;;6.30;99.90;;;;;;5034377;28;20078;-68
2023/01/15 13:31:11;;;;;;;13.40;6.28;;;6.30;99.90;;;;;;5033496;28;20061;-68
2023/01/15 13:33:48;;;;;;;8.25;6.03;;;6.40;99.90;;;;;;5032551;28;20382;-69
2023/01/15 13:36:25;;;;;;;10.35;6.22;;;6.30;99.90;;;;;;5033858;28;20030;-68
2023/01/15 13:38:56;;;;;;;9.10;5.57;;;6.30;99.90;;;;;;5033683;28;20033;-69
2023/01/15 13:44:22;;;;;;;8.05;6.00;;;6.30;99.90;;;;;;5033679;28;20117;-68
2023/01/15 13:47:01;;;;;;;7.50;5.20;;;6.30;99.90;;;;;;5033541;28;20072;-69
2023/01/15 13:49:34;;;;;;;9.90;5.90;;;6.30;99.90;;;;;;5053147;28;20052;-68
2023/01/15 13:52:03;;;;;;;7.72;5.80;;;6.30;99.90;;;;;;5053854;28;20446;-70
2023/01/15 13:54:31;;;;;;;10.77;6.32;;;6.30;99.90;;;;;;5053487;28;20116;-69
2023/01/15 13:57:30;;;;;;;11.18;6.75;;;6.30;99.90;;;;;;5051957;28;20051;-69
2023/01/15 13:59:56;;;;;;;10.25;6.35;;;6.20;99.90;;;;;;5053465;28;20100;-69
2023/01/15 14:02:33;;;;;;;10.90;6.50;;;6.20;99.90;;;;;;5053642;28;20027;-68
2023/01/15 14:04:59;;;;;;;15.30;6.78;;;6.20;99.90;;;;;;5053271;28;20027;-68
2023/01/15 14:07:36;;;;;;;14.10;6.93;;;6.30;99.90;;;;;;5053492;28;20025;-68
2023/01/15 14:10:23;;;;;;;11.38;7.30;;;6.30;99.90;;;;;;5053577;28;20060;-71